sensor_id;sensor_type;location;lat;lon;timestamp;P1;durP1;ratioP1;P2;durP2;ratioP2
11123;SDS011;5616;42.692;23.312;2022-11-30T00:01:26;4.33;;;3.70;;
11123;SDS011;5616;42.692;23.312;2022-11-30T00:03:54;6.03;;;4.17;;
11123;SDS011;5616;42.692;23.312;2022-11-30T00:06:22;7.10;;;4.73;;
11123;SDS011;5616;42.692;23.312;2022-11-30T00:08:51;6.57;;;4.20;;
11123;SDS011;5616;42.692;23.312;2022-11-30T00:11:19;5.23;;;4.23;;
11123;SDS011;5616;42.692;23.312;2022-11-30T00:13:46;6.27;;;4.10;;
11123;SDS011;5616;42.692;23.312;2022-11-30T00:16:14;5.30;;;3.97;;
11123;SDS011;5616;42.692;23.312;2022-11-30T00:18:41;5.57;;;4.00;;
11123;SDS011;5616;42.692;23.312;2022-11-30T00:21:10;4.97;;;3.43;;
11123;SDS011;5616;42.692;23.312;2022-11-30T00:23:39;4.30;;;3.47;;
11123;SDS011;5616;42.692;23.312;2022-11-30T00:26:08;4.63;;;3.37;;
11123;SDS011;5616;42.692;23.312;2022-11-30T00:28:36;4.67;;;3.30;;
11123;SDS011;5616;42.692;23.312;2022-11-30T00:31:04;4.43;;;3.47;;
11123;SDS011;5616;42.692;23.312;2022-11-30T00:33:32;3.83;;;3.13;;
11123;SDS011;5616;42.692;23.312;2022-11-30T00:36:01;4.07;;;3.13;;
11123;SDS011;5616;42.692;23.312;2022-11-30T00:38:31;3.87;;;2.97;;
11123;SDS011;5616;42.692;23.312;2022-11-30T00:40:59;3.27;;;2.97;;
11123;SDS011;5616;42.692;23.312;2022-11-30T00:43:27;3.10;;;2.60;;
11123;SDS011;5616;42.692;23.312;2022-11-30T00:45:55;3.40;;;2.93;;
11123;SDS011;5616;42.692;23.312;2022-11-30T00:48:22;3.70;;;2.63;;
11123;SDS011;5616;42.692;23.312;2022-11-30T00:50:49;3.00;;;2.20;;
11123;SDS011;5616;42.692;23.312;2022-11-30T00:53:16;3.50;;;2.63;;
11123;SDS011;5616;42.692;23.312;2022-11-30T00:55:45;2.33;;;2.00;;
11123;SDS011;5616;42.692;23.312;2022-11-30T00:58:12;2.63;;;2.10;;
11123;SDS011;5616;42.692;23.312;2022-11-30T01:00:40;2.67;;;1.87;;
11123;SDS011;5616;42.692;23.312;2022-11-30T01:03:07;3.07;;;2.07;;
11123;SDS011;5616;42.692;23.312;2022-11-30T01:05:34;2.30;;;1.73;;
11123;SDS011;5616;42.692;23.312;2022-11-30T01:08:02;1.97;;;1.60;;
11123;SDS011;5616;42.692;23.312;2022-11-30T01:10:30;1.60;;;1.50;;
11123;SDS011;5616;42.692;23.312;2022-11-30T01:13:00;1.40;;;1.23;;
11123;SDS011;5616;42.692;23.312;2022-11-30T01:15:27;1.50;;;1.40;;
11123;SDS011;5616;42.692;23.312;2022-11-30T01:17:54;1.83;;;1.43;;
11123;SDS011;5616;42.692;23.312;2022-11-30T01:20:21;1.57;;;1.43;;
11123;SDS011;5616;42.692;23.312;2022-11-30T01:22:48;1.47;;;1.30;;
11123;SDS011;5616;42.692;23.312;2022-11-30T01:25:14;1.50;;;1.30;;
11123;SDS011;5616;42.692;23.312;2022-11-30T01:27:41;1.23;;;1.13;;
11123;SDS011;5616;42.692;23.312;2022-11-30T01:30:10;1.80;;;1.48;;
11123;SDS011;5616;42.692;23.312;2022-11-30T01:32:37;2.80;;;1.57;;
11123;SDS011;5616;42.692;23.312;2022-11-30T01:35:04;2.70;;;1.40;;
11123;SDS011;5616;42.692;23.312;2022-11-30T01:37:32;2.03;;;1.30;;
11123;SDS011;5616;42.692;23.312;2022-11-30T01:39:58;2.17;;;1.40;;
11123;SDS011;5616;42.692;23.312;2022-11-30T01:42:25;1.07;;;0.97;;
11123;SDS011;5616;42.692;23.312;2022-11-30T01:44:53;1.67;;;1.50;;
11123;SDS011;5616;42.692;23.312;2022-11-30T01:47:23;1.20;;;1.10;;
11123;SDS011;5616;42.692;23.312;2022-11-30T01:49:54;1.17;;;1.07;;
11123;SDS011;5616;42.692;23.312;2022-11-30T01:52:28;0.97;;;0.90;;
11123;SDS011;5616;42.692;23.312;2022-11-30T01:55:02;1.00;;;0.90;;
11123;SDS011;5616;42.692;23.312;2022-11-30T01:57:39;0.90;;;0.83;;
11123;SDS011;5616;42.692;23.312;2022-11-30T02:00:11;1.10;;;1.00;;
11123;SDS011;5616;42.692;23.312;2022-11-30T02:02:42;1.00;;;0.80;;
11123;SDS011;5616;42.692;23.312;2022-11-30T02:05:14;1.83;;;1.10;;
11123;SDS011;5616;42.692;23.312;2022-11-30T02:07:42;1.20;;;1.07;;
11123;SDS011;5616;42.692;23.312;2022-11-30T02:10:12;2.43;;;0.87;;
11123;SDS011;5616;42.692;23.312;2022-11-30T02:12:42;1.27;;;1.13;;
11123;SDS011;5616;42.692;23.312;2022-11-30T02:15:20;1.83;;;1.03;;
11123;SDS011;5616;42.692;23.312;2022-11-30T02:17:55;1.53;;;1.30;;
11123;SDS011;5616;42.692;23.312;2022-11-30T02:20:37;2.30;;;1.50;;
11123;SDS011;5616;42.692;23.312;2022-11-30T02:23:19;1.50;;;1.40;;
11123;SDS011;5616;42.692;23.312;2022-11-30T02:26:02;2.87;;;1.60;;
11123;SDS011;5616;42.692;23.312;2022-11-30T02:28:44;4.33;;;1.90;;
11123;SDS011;5616;42.692;23.312;2022-11-30T02:31:24;3.43;;;2.00;;
11123;SDS011;5616;42.692;23.312;2022-11-30T02:33:54;2.73;;;2.20;;
11123;SDS011;5616;42.692;23.312;2022-11-30T02:36:22;2.63;;;2.10;;
11123;SDS011;5616;42.692;23.312;2022-11-30T02:38:50;3.13;;;2.40;;
11123;SDS011;5616;42.692;23.312;2022-11-30T02:41:17;2.90;;;2.53;;
11123;SDS011;5616;42.692;23.312;2022-11-30T02:43:45;2.80;;;2.60;;
11123;SDS011;5616;42.692;23.312;2022-11-30T02:46:13;4.57;;;2.93;;
11123;SDS011;5616;42.692;23.312;2022-11-30T02:48:47;5.80;;;3.20;;
11123;SDS011;5616;42.692;23.312;2022-11-30T02:51:21;3.43;;;3.13;;
11123;SDS011;5616;42.692;23.312;2022-11-30T02:53:50;3.60;;;3.10;;
11123;SDS011;5616;42.692;23.312;2022-11-30T02:56:17;3.67;;;3.00;;
11123;SDS011;5616;42.692;23.312;2022-11-30T02:58:47;3.33;;;3.03;;
11123;SDS011;5616;42.692;23.312;2022-11-30T03:01:14;4.70;;;2.90;;
11123;SDS011;5616;42.692;23.312;2022-11-30T03:03:41;4.30;;;3.03;;
11123;SDS011;5616;42.692;23.312;2022-11-30T03:06:09;3.10;;;2.80;;
11123;SDS011;5616;42.692;23.312;2022-11-30T03:08:36;3.17;;;2.40;;
11123;SDS011;5616;42.692;23.312;2022-11-30T03:11:03;3.10;;;2.80;;
11123;SDS011;5616;42.692;23.312;2022-11-30T03:13:30;3.83;;;2.67;;
11123;SDS011;5616;42.692;23.312;2022-11-30T03:16:03;4.20;;;2.80;;
11123;SDS011;5616;42.692;23.312;2022-11-30T03:18:31;4.03;;;2.93;;
11123;SDS011;5616;42.692;23.312;2022-11-30T03:20:58;3.07;;;2.80;;
11123;SDS011;5616;42.692;23.312;2022-11-30T03:23:24;3.70;;;3.10;;
11123;SDS011;5616;42.692;23.312;2022-11-30T03:25:55;3.67;;;2.87;;
11123;SDS011;5616;42.692;23.312;2022-11-30T03:28:22;3.40;;;2.90;;
11123;SDS011;5616;42.692;23.312;2022-11-30T03:30:49;3.57;;;2.77;;
11123;SDS011;5616;42.692;23.312;2022-11-30T03:33:18;2.70;;;2.50;;
11123;SDS011;5616;42.692;23.312;2022-11-30T03:35:45;3.00;;;2.70;;
11123;SDS011;5616;42.692;23.312;2022-11-30T03:38:12;2.90;;;2.30;;
11123;SDS011;5616;42.692;23.312;2022-11-30T03:40:39;2.93;;;2.53;;
11123;SDS011;5616;42.692;23.312;2022-11-30T03:43:05;2.87;;;2.40;;
11123;SDS011;5616;42.692;23.312;2022-11-30T03:45:32;2.50;;;2.27;;
11123;SDS011;5616;42.692;23.312;2022-11-30T03:47:59;2.80;;;2.53;;
11123;SDS011;5616;42.692;23.312;2022-11-30T03:50:27;2.67;;;2.47;;
11123;SDS011;5616;42.692;23.312;2022-11-30T03:52:54;4.17;;;3.10;;
11123;SDS011;5616;42.692;23.312;2022-11-30T03:55:21;3.00;;;2.30;;
11123;SDS011;5616;42.692;23.312;2022-11-30T03:57:47;3.60;;;2.40;;
11123;SDS011;5616;42.692;23.312;2022-11-30T04:00:14;2.73;;;2.43;;
11123;SDS011;5616;42.692;23.312;2022-11-30T04:02:42;2.67;;;2.47;;
11123;SDS011;5616;42.692;23.312;2022-11-30T04:05:09;3.10;;;2.80;;
11123;SDS011;5616;42.692;23.312;2022-11-30T04:07:37;2.53;;;2.33;;
11123;SDS011;5616;42.692;23.312;2022-11-30T04:10:04;2.90;;;2.33;;
11123;SDS011;5616;42.692;23.312;2022-11-30T04:12:32;2.63;;;2.37;;
11123;SDS011;5616;42.692;23.312;2022-11-30T04:14:58;2.50;;;2.30;;
11123;SDS011;5616;42.692;23.312;2022-11-30T04:17:25;3.13;;;2.83;;
11123;SDS011;5616;42.692;23.312;2022-11-30T04:19:52;3.10;;;2.50;;
11123;SDS011;5616;42.692;23.312;2022-11-30T04:22:19;2.57;;;2.30;;
11123;SDS011;5616;42.692;23.312;2022-11-30T04:24:47;2.57;;;2.20;;
11123;SDS011;5616;42.692;23.312;2022-11-30T04:27:14;4.30;;;2.30;;
11123;SDS011;5616;42.692;23.312;2022-11-30T04:29:40;2.63;;;2.00;;
11123;SDS011;5616;42.692;23.312;2022-11-30T04:32:07;2.30;;;2.10;;
11123;SDS011;5616;42.692;23.312;2022-11-30T04:34:34;2.43;;;2.20;;
11123;SDS011;5616;42.692;23.312;2022-11-30T04:37:01;2.20;;;1.93;;
11123;SDS011;5616;42.692;23.312;2022-11-30T04:39:28;2.07;;;1.87;;
11123;SDS011;5616;42.692;23.312;2022-11-30T04:41:56;2.40;;;2.20;;
11123;SDS011;5616;42.692;23.312;2022-11-30T04:44:22;3.50;;;2.10;;
11123;SDS011;5616;42.692;23.312;2022-11-30T04:46:49;2.80;;;2.20;;
11123;SDS011;5616;42.692;23.312;2022-11-30T04:49:16;2.40;;;2.00;;
11123;SDS011;5616;42.692;23.312;2022-11-30T04:51:43;2.27;;;2.07;;
11123;SDS011;5616;42.692;23.312;2022-11-30T04:54:10;2.20;;;2.00;;
11123;SDS011;5616;42.692;23.312;2022-11-30T04:56:36;1.80;;;1.70;;
11123;SDS011;5616;42.692;23.312;2022-11-30T04:59:04;1.90;;;1.63;;
11123;SDS011;5616;42.692;23.312;2022-11-30T05:01:31;2.03;;;1.87;;
11123;SDS011;5616;42.692;23.312;2022-11-30T05:03:59;2.90;;;2.20;;
11123;SDS011;5616;42.692;23.312;2022-11-30T05:06:26;2.67;;;2.20;;
11123;SDS011;5616;42.692;23.312;2022-11-30T05:08:53;3.03;;;2.43;;
11123;SDS011;5616;42.692;23.312;2022-11-30T05:11:20;2.77;;;2.10;;
11123;SDS011;5616;42.692;23.312;2022-11-30T05:13:46;2.33;;;1.97;;
11123;SDS011;5616;42.692;23.312;2022-11-30T05:16:15;2.40;;;2.20;;
11123;SDS011;5616;42.692;23.312;2022-11-30T05:18:41;3.70;;;2.30;;
11123;SDS011;5616;42.692;23.312;2022-11-30T05:21:08;3.00;;;2.60;;
11123;SDS011;5616;42.692;23.312;2022-11-30T05:23:35;2.70;;;2.50;;
11123;SDS011;5616;42.692;23.312;2022-11-30T05:26:02;3.30;;;2.77;;
11123;SDS011;5616;42.692;23.312;2022-11-30T05:28:29;2.57;;;2.37;;
11123;SDS011;5616;42.692;23.312;2022-11-30T05:31:00;3.83;;;2.80;;
11123;SDS011;5616;42.692;23.312;2022-11-30T05:33:29;5.03;;;2.97;;
11123;SDS011;5616;42.692;23.312;2022-11-30T05:35:56;4.13;;;3.03;;
11123;SDS011;5616;42.692;23.312;2022-11-30T05:38:23;5.73;;;3.00;;
11123;SDS011;5616;42.692;23.312;2022-11-30T05:40:50;3.33;;;2.67;;
11123;SDS011;5616;42.692;23.312;2022-11-30T05:43:17;4.87;;;2.90;;
11123;SDS011;5616;42.692;23.312;2022-11-30T05:45:43;4.90;;;2.60;;
11123;SDS011;5616;42.692;23.312;2022-11-30T05:48:10;5.57;;;2.87;;
11123;SDS011;5616;42.692;23.312;2022-11-30T05:50:38;3.30;;;2.47;;
11123;SDS011;5616;42.692;23.312;2022-11-30T05:53:05;2.63;;;2.43;;
11123;SDS011;5616;42.692;23.312;2022-11-30T05:55:32;3.30;;;2.47;;
11123;SDS011;5616;42.692;23.312;2022-11-30T05:57:59;2.93;;;2.60;;
11123;SDS011;5616;42.692;23.312;2022-11-30T06:00:26;6.20;;;4.63;;
11123;SDS011;5616;42.692;23.312;2022-11-30T06:02:56;9.13;;;5.40;;
11123;SDS011;5616;42.692;23.312;2022-11-30T06:05:23;11.23;;;4.73;;
11123;SDS011;5616;42.692;23.312;2022-11-30T06:07:51;8.93;;;4.47;;
11123;SDS011;5616;42.692;23.312;2022-11-30T06:10:18;19.40;;;9.80;;
11123;SDS011;5616;42.692;23.312;2022-11-30T06:12:45;9.57;;;5.43;;
11123;SDS011;5616;42.692;23.312;2022-11-30T06:15:12;5.17;;;3.33;;
11123;SDS011;5616;42.692;23.312;2022-11-30T06:17:39;8.23;;;4.60;;
11123;SDS011;5616;42.692;23.312;2022-11-30T06:20:07;6.03;;;3.90;;
11123;SDS011;5616;42.692;23.312;2022-11-30T06:22:34;11.77;;;5.50;;
11123;SDS011;5616;42.692;23.312;2022-11-30T06:25:03;8.60;;;4.53;;
11123;SDS011;5616;42.692;23.312;2022-11-30T06:27:30;6.30;;;4.47;;
11123;SDS011;5616;42.692;23.312;2022-11-30T06:29:57;8.70;;;3.70;;
11123;SDS011;5616;42.692;23.312;2022-11-30T06:32:24;6.90;;;4.47;;
11123;SDS011;5616;42.692;23.312;2022-11-30T06:34:51;10.73;;;5.83;;
11123;SDS011;5616;42.692;23.312;2022-11-30T06:37:18;4.50;;;2.90;;
11123;SDS011;5616;42.692;23.312;2022-11-30T06:39:44;9.23;;;4.73;;
11123;SDS011;5616;42.692;23.312;2022-11-30T06:42:12;7.80;;;4.60;;
11123;SDS011;5616;42.692;23.312;2022-11-30T06:44:39;8.33;;;4.23;;
11123;SDS011;5616;42.692;23.312;2022-11-30T06:47:06;15.97;;;7.10;;
11123;SDS011;5616;42.692;23.312;2022-11-30T06:49:33;2.97;;;2.40;;
11123;SDS011;5616;42.692;23.312;2022-11-30T06:52:00;2.53;;;2.20;;
11123;SDS011;5616;42.692;23.312;2022-11-30T06:54:26;2.93;;;2.40;;
11123;SDS011;5616;42.692;23.312;2022-11-30T06:56:53;2.77;;;2.37;;
11123;SDS011;5616;42.692;23.312;2022-11-30T06:59:23;3.47;;;2.23;;
11123;SDS011;5616;42.692;23.312;2022-11-30T07:01:50;2.40;;;2.20;;
11123;SDS011;5616;42.692;23.312;2022-11-30T07:04:17;2.93;;;2.40;;
11123;SDS011;5616;42.692;23.312;2022-11-30T07:06:44;2.67;;;2.33;;
11123;SDS011;5616;42.692;23.312;2022-11-30T07:09:10;2.60;;;2.40;;
11123;SDS011;5616;42.692;23.312;2022-11-30T07:11:37;5.27;;;2.63;;
11123;SDS011;5616;42.692;23.312;2022-11-30T07:14:04;2.80;;;2.53;;
11123;SDS011;5616;42.692;23.312;2022-11-30T07:16:33;6.47;;;2.77;;
11123;SDS011;5616;42.692;23.312;2022-11-30T07:19:00;3.27;;;2.53;;
11123;SDS011;5616;42.692;23.312;2022-11-30T07:21:26;3.37;;;2.43;;
11123;SDS011;5616;42.692;23.312;2022-11-30T07:23:53;2.83;;;2.50;;
11123;SDS011;5616;42.692;23.312;2022-11-30T07:26:37;2.73;;;2.23;;
11123;SDS011;5616;42.692;23.312;2022-11-30T07:29:04;4.10;;;2.63;;
11123;SDS011;5616;42.692;23.312;2022-11-30T07:31:32;5.30;;;3.40;;
11123;SDS011;5616;42.692;23.312;2022-11-30T07:34:02;12.13;;;5.17;;
11123;SDS011;5616;42.692;23.312;2022-11-30T07:36:31;9.97;;;5.93;;
11123;SDS011;5616;42.692;23.312;2022-11-30T07:38:58;20.73;;;10.63;;
11123;SDS011;5616;42.692;23.312;2022-11-30T07:41:26;18.07;;;9.90;;
11123;SDS011;5616;42.692;23.312;2022-11-30T07:43:53;17.60;;;9.30;;
11123;SDS011;5616;42.692;23.312;2022-11-30T07:46:20;16.00;;;8.70;;
11123;SDS011;5616;42.692;23.312;2022-11-30T07:48:48;13.83;;;7.00;;
11123;SDS011;5616;42.692;23.312;2022-11-30T07:51:15;17.20;;;9.60;;
11123;SDS011;5616;42.692;23.312;2022-11-30T07:53:43;20.13;;;9.93;;
11123;SDS011;5616;42.692;23.312;2022-11-30T07:56:11;23.57;;;10.13;;
11123;SDS011;5616;42.692;23.312;2022-11-30T07:58:39;25.47;;;13.20;;
11123;SDS011;5616;42.692;23.312;2022-11-30T08:01:07;18.90;;;9.03;;
11123;SDS011;5616;42.692;23.312;2022-11-30T08:03:36;23.03;;;9.07;;
11123;SDS011;5616;42.692;23.312;2022-11-30T08:06:05;10.97;;;6.33;;
11123;SDS011;5616;42.692;23.312;2022-11-30T08:08:33;3.93;;;2.90;;
11123;SDS011;5616;42.692;23.312;2022-11-30T08:11:02;3.60;;;3.07;;
11123;SDS011;5616;42.692;23.312;2022-11-30T08:13:30;4.90;;;3.13;;
11123;SDS011;5616;42.692;23.312;2022-11-30T08:15:59;25.27;;;11.80;;
11123;SDS011;5616;42.692;23.312;2022-11-30T08:18:27;12.93;;;6.37;;
11123;SDS011;5616;42.692;23.312;2022-11-30T08:20:57;16.60;;;8.93;;
11123;SDS011;5616;42.692;23.312;2022-11-30T08:23:25;18.73;;;7.90;;
11123;SDS011;5616;42.692;23.312;2022-11-30T08:25:53;6.60;;;3.40;;
11123;SDS011;5616;42.692;23.312;2022-11-30T08:28:20;15.27;;;6.73;;
11123;SDS011;5616;42.692;23.312;2022-11-30T08:30:47;14.90;;;6.50;;
11123;SDS011;5616;42.692;23.312;2022-11-30T08:33:14;13.23;;;5.90;;
11123;SDS011;5616;42.692;23.312;2022-11-30T08:35:40;16.33;;;7.93;;
11123;SDS011;5616;42.692;23.312;2022-11-30T08:38:07;20.87;;;8.97;;
11123;SDS011;5616;42.692;23.312;2022-11-30T08:40:35;19.27;;;8.63;;
11123;SDS011;5616;42.692;23.312;2022-11-30T08:43:02;21.03;;;8.77;;
11123;SDS011;5616;42.692;23.312;2022-11-30T08:45:29;9.27;;;4.90;;
11123;SDS011;5616;42.692;23.312;2022-11-30T08:47:56;4.23;;;3.00;;
11123;SDS011;5616;42.692;23.312;2022-11-30T08:50:23;4.20;;;2.70;;
11123;SDS011;5616;42.692;23.312;2022-11-30T08:52:51;3.57;;;2.30;;
11123;SDS011;5616;42.692;23.312;2022-11-30T08:55:19;3.83;;;2.50;;
11123;SDS011;5616;42.692;23.312;2022-11-30T08:57:47;6.40;;;3.80;;
11123;SDS011;5616;42.692;23.312;2022-11-30T09:00:14;5.60;;;3.07;;
11123;SDS011;5616;42.692;23.312;2022-11-30T09:02:43;4.23;;;2.87;;
11123;SDS011;5616;42.692;23.312;2022-11-30T09:05:11;4.00;;;3.03;;
11123;SDS011;5616;42.692;23.312;2022-11-30T09:07:38;7.17;;;4.70;;
11123;SDS011;5616;42.692;23.312;2022-11-30T09:10:05;10.85;;;5.47;;
11123;SDS011;5616;42.692;23.312;2022-11-30T09:12:33;19.00;;;8.03;;
11123;SDS011;5616;42.692;23.312;2022-11-30T09:15:02;20.20;;;8.03;;
11123;SDS011;5616;42.692;23.312;2022-11-30T09:17:30;28.27;;;9.80;;
11123;SDS011;5616;42.692;23.312;2022-11-30T09:19:57;9.53;;;5.57;;
11123;SDS011;5616;42.692;23.312;2022-11-30T09:22:24;22.50;;;10.60;;
11123;SDS011;5616;42.692;23.312;2022-11-30T09:24:53;10.50;;;5.60;;
11123;SDS011;5616;42.692;23.312;2022-11-30T09:27:19;15.83;;;7.27;;
11123;SDS011;5616;42.692;23.312;2022-11-30T09:29:47;4.80;;;3.07;;
11123;SDS011;5616;42.692;23.312;2022-11-30T09:32:15;6.77;;;3.20;;
11123;SDS011;5616;42.692;23.312;2022-11-30T09:34:42;13.17;;;6.97;;
11123;SDS011;5616;42.692;23.312;2022-11-30T09:37:09;5.47;;;3.23;;
11123;SDS011;5616;42.692;23.312;2022-11-30T09:39:36;13.07;;;5.37;;
11123;SDS011;5616;42.692;23.312;2022-11-30T09:45:13;4.30;;;2.40;;
11123;SDS011;5616;42.692;23.312;2022-11-30T09:47:59;3.30;;;1.93;;
11123;SDS011;5616;42.692;23.312;2022-11-30T09:50:36;8.73;;;4.30;;
11123;SDS011;5616;42.692;23.312;2022-11-30T09:53:09;6.80;;;3.47;;
11123;SDS011;5616;42.692;23.312;2022-11-30T09:55:41;4.63;;;3.13;;
11123;SDS011;5616;42.692;23.312;2022-11-30T09:58:10;13.13;;;5.93;;
11123;SDS011;5616;42.692;23.312;2022-11-30T10:00:48;12.63;;;7.13;;
11123;SDS011;5616;42.692;23.312;2022-11-30T10:03:17;11.20;;;5.70;;
11123;SDS011;5616;42.692;23.312;2022-11-30T10:05:46;6.17;;;3.60;;
11123;SDS011;5616;42.692;23.312;2022-11-30T10:08:26;8.43;;;5.23;;
11123;SDS011;5616;42.692;23.312;2022-11-30T10:11:14;9.60;;;5.10;;
11123;SDS011;5616;42.692;23.312;2022-11-30T10:14:03;15.07;;;6.40;;
11123;SDS011;5616;42.692;23.312;2022-11-30T10:16:43;9.50;;;4.67;;
11123;SDS011;5616;42.692;23.312;2022-11-30T10:19:24;8.17;;;5.17;;
11123;SDS011;5616;42.692;23.312;2022-11-30T10:22:04;8.17;;;5.43;;
11123;SDS011;5616;42.692;23.312;2022-11-30T10:24:44;9.63;;;3.93;;
11123;SDS011;5616;42.692;23.312;2022-11-30T10:27:28;10.50;;;5.83;;
11123;SDS011;5616;42.692;23.312;2022-11-30T10:30:07;11.70;;;5.33;;
11123;SDS011;5616;42.692;23.312;2022-11-30T10:32:39;8.87;;;4.17;;
11123;SDS011;5616;42.692;23.312;2022-11-30T10:35:16;6.73;;;3.90;;
11123;SDS011;5616;42.692;23.312;2022-11-30T10:37:47;11.83;;;5.30;;
11123;SDS011;5616;42.692;23.312;2022-11-30T10:40:17;9.87;;;4.83;;
11123;SDS011;5616;42.692;23.312;2022-11-30T10:42:50;3.53;;;2.40;;
11123;SDS011;5616;42.692;23.312;2022-11-30T10:45:24;6.50;;;2.40;;
11123;SDS011;5616;42.692;23.312;2022-11-30T10:47:55;9.47;;;4.20;;
11123;SDS011;5616;42.692;23.312;2022-11-30T10:50:30;7.13;;;3.63;;
11123;SDS011;5616;42.692;23.312;2022-11-30T10:52:57;7.33;;;4.47;;
11123;SDS011;5616;42.692;23.312;2022-11-30T10:55:26;13.27;;;6.40;;
11123;SDS011;5616;42.692;23.312;2022-11-30T10:57:56;4.87;;;3.10;;
11123;SDS011;5616;42.692;23.312;2022-11-30T11:00:27;31.77;;;13.73;;
11123;SDS011;5616;42.692;23.312;2022-11-30T11:02:55;8.73;;;4.27;;
11123;SDS011;5616;42.692;23.312;2022-11-30T11:05:23;31.70;;;13.63;;
11123;SDS011;5616;42.692;23.312;2022-11-30T11:07:53;18.93;;;8.73;;
11123;SDS011;5616;42.692;23.312;2022-11-30T11:10:24;22.50;;;8.37;;
11123;SDS011;5616;42.692;23.312;2022-11-30T11:12:56;13.20;;;6.30;;
11123;SDS011;5616;42.692;23.312;2022-11-30T11:15:23;7.80;;;4.27;;
11123;SDS011;5616;42.692;23.312;2022-11-30T11:17:51;20.70;;;9.73;;
11123;SDS011;5616;42.692;23.312;2022-11-30T11:20:27;7.50;;;3.57;;
11123;SDS011;5616;42.692;23.312;2022-11-30T11:22:58;8.60;;;4.33;;
11123;SDS011;5616;42.692;23.312;2022-11-30T11:25:27;22.60;;;10.37;;
11123;SDS011;5616;42.692;23.312;2022-11-30T11:28:02;8.77;;;4.93;;
11123;SDS011;5616;42.692;23.312;2022-11-30T11:30:33;5.00;;;2.30;;
11123;SDS011;5616;42.692;23.312;2022-11-30T11:33:02;2.80;;;2.10;;
11123;SDS011;5616;42.692;23.312;2022-11-30T11:35:44;2.80;;;2.00;;
11123;SDS011;5616;42.692;23.312;2022-11-30T11:38:23;3.90;;;2.17;;
11123;SDS011;5616;42.692;23.312;2022-11-30T11:40:53;3.67;;;2.10;;
11123;SDS011;5616;42.692;23.312;2022-11-30T11:43:22;3.13;;;2.17;;
11123;SDS011;5616;42.692;23.312;2022-11-30T11:45:52;3.03;;;2.27;;
11123;SDS011;5616;42.692;23.312;2022-11-30T11:48:31;3.50;;;2.00;;
11123;SDS011;5616;42.692;23.312;2022-11-30T11:51:01;4.00;;;2.43;;
11123;SDS011;5616;42.692;23.312;2022-11-30T11:53:36;11.63;;;5.40;;
11123;SDS011;5616;42.692;23.312;2022-11-30T11:56:08;9.43;;;6.03;;
11123;SDS011;5616;42.692;23.312;2022-11-30T11:58:39;12.50;;;7.43;;
11123;SDS011;5616;42.692;23.312;2022-11-30T12:01:09;15.30;;;7.73;;
11123;SDS011;5616;42.692;23.312;2022-11-30T12:03:43;11.03;;;6.37;;
11123;SDS011;5616;42.692;23.312;2022-11-30T12:06:18;7.30;;;4.60;;
11123;SDS011;5616;42.692;23.312;2022-11-30T12:09:00;5.67;;;3.00;;
11123;SDS011;5616;42.692;23.312;2022-11-30T12:11:38;6.40;;;4.00;;
11123;SDS011;5616;42.692;23.312;2022-11-30T12:14:10;6.67;;;4.20;;
11123;SDS011;5616;42.692;23.312;2022-11-30T12:16:41;6.00;;;3.20;;
11123;SDS011;5616;42.692;23.312;2022-11-30T12:19:20;8.17;;;4.20;;
11123;SDS011;5616;42.692;23.312;2022-11-30T12:21:54;6.67;;;3.97;;
11123;SDS011;5616;42.692;23.312;2022-11-30T12:24:36;9.37;;;4.83;;
11123;SDS011;5616;42.692;23.312;2022-11-30T12:27:24;6.87;;;4.13;;
11123;SDS011;5616;42.692;23.312;2022-11-30T12:30:01;9.47;;;4.00;;
11123;SDS011;5616;42.692;23.312;2022-11-30T12:32:39;7.03;;;3.80;;
11123;SDS011;5616;42.692;23.312;2022-11-30T12:35:23;10.67;;;5.37;;
11123;SDS011;5616;42.692;23.312;2022-11-30T12:38:01;7.67;;;4.40;;
11123;SDS011;5616;42.692;23.312;2022-11-30T12:40:39;16.33;;;7.30;;
11123;SDS011;5616;42.692;23.312;2022-11-30T12:43:15;12.27;;;5.33;;
11123;SDS011;5616;42.692;23.312;2022-11-30T12:45:50;7.33;;;4.60;;
11123;SDS011;5616;42.692;23.312;2022-11-30T12:48:24;9.47;;;4.67;;
11123;SDS011;5616;42.692;23.312;2022-11-30T12:51:05;13.80;;;7.13;;
11123;SDS011;5616;42.692;23.312;2022-11-30T12:53:42;16.90;;;8.20;;
11123;SDS011;5616;42.692;23.312;2022-11-30T12:56:20;12.70;;;6.63;;
11123;SDS011;5616;42.692;23.312;2022-11-30T12:58:56;7.57;;;4.70;;
11123;SDS011;5616;42.692;23.312;2022-11-30T13:01:44;9.03;;;4.67;;
11123;SDS011;5616;42.692;23.312;2022-11-30T13:04:18;8.43;;;4.80;;
11123;SDS011;5616;42.692;23.312;2022-11-30T13:06:52;10.60;;;5.40;;
11123;SDS011;5616;42.692;23.312;2022-11-30T13:09:25;8.47;;;4.57;;
11123;SDS011;5616;42.692;23.312;2022-11-30T13:11:58;9.83;;;5.00;;
11123;SDS011;5616;42.692;23.312;2022-11-30T13:14:30;6.67;;;4.00;;
11123;SDS011;5616;42.692;23.312;2022-11-30T13:16:59;7.13;;;2.90;;
11123;SDS011;5616;42.692;23.312;2022-11-30T13:19:32;5.10;;;2.63;;
11123;SDS011;5616;42.692;23.312;2022-11-30T13:22:12;14.63;;;6.23;;
11123;SDS011;5616;42.692;23.312;2022-11-30T13:24:46;6.90;;;3.73;;
11123;SDS011;5616;42.692;23.312;2022-11-30T13:27:20;4.40;;;2.70;;
11123;SDS011;5616;42.692;23.312;2022-11-30T13:30:08;6.53;;;2.97;;
11123;SDS011;5616;42.692;23.312;2022-11-30T13:32:44;3.60;;;2.60;;
11123;SDS011;5616;42.692;23.312;2022-11-30T13:38:13;9.13;;;2.43;;
11123;SDS011;5616;42.692;23.312;2022-11-30T13:40:51;5.17;;;2.40;;
11123;SDS011;5616;42.692;23.312;2022-11-30T13:43:20;5.90;;;2.63;;
11123;SDS011;5616;42.692;23.312;2022-11-30T13:45:55;4.30;;;2.70;;
11123;SDS011;5616;42.692;23.312;2022-11-30T13:48:29;3.97;;;2.57;;
11123;SDS011;5616;42.692;23.312;2022-11-30T13:50:58;3.67;;;2.37;;
11123;SDS011;5616;42.692;23.312;2022-11-30T13:53:25;4.43;;;2.40;;
11123;SDS011;5616;42.692;23.312;2022-11-30T13:55:55;3.53;;;2.30;;
11123;SDS011;5616;42.692;23.312;2022-11-30T13:58:25;7.33;;;2.43;;
11123;SDS011;5616;42.692;23.312;2022-11-30T14:01:00;6.60;;;2.80;;
11123;SDS011;5616;42.692;23.312;2022-11-30T14:06:57;7.00;;;2.57;;
11123;SDS011;5616;42.692;23.312;2022-11-30T14:18:26;10.73;;;3.27;;
11123;SDS011;5616;42.692;23.312;2022-11-30T14:20:59;5.57;;;3.20;;
11123;SDS011;5616;42.692;23.312;2022-11-30T14:23:28;5.13;;;2.70;;
11123;SDS011;5616;42.692;23.312;2022-11-30T14:26:02;4.53;;;3.00;;
11123;SDS011;5616;42.692;23.312;2022-11-30T14:28:37;4.03;;;3.03;;
11123;SDS011;5616;42.692;23.312;2022-11-30T14:31:14;3.90;;;2.93;;
11123;SDS011;5616;42.692;23.312;2022-11-30T14:33:45;6.47;;;2.93;;
11123;SDS011;5616;42.692;23.312;2022-11-30T14:36:15;5.13;;;3.13;;
11123;SDS011;5616;42.692;23.312;2022-11-30T14:38:43;4.57;;;3.17;;
11123;SDS011;5616;42.692;23.312;2022-11-30T14:41:21;3.60;;;2.27;;
11123;SDS011;5616;42.692;23.312;2022-11-30T14:44:00;4.50;;;2.10;;
11123;SDS011;5616;42.692;23.312;2022-11-30T14:46:30;5.83;;;2.43;;
11123;SDS011;5616;42.692;23.312;2022-11-30T14:49:06;4.67;;;2.70;;
11123;SDS011;5616;42.692;23.312;2022-11-30T14:51:38;6.40;;;3.40;;
11123;SDS011;5616;42.692;23.312;2022-11-30T14:54:09;13.10;;;6.07;;
11123;SDS011;5616;42.692;23.312;2022-11-30T14:56:43;13.20;;;6.67;;
11123;SDS011;5616;42.692;23.312;2022-11-30T14:59:19;21.27;;;8.60;;
11123;SDS011;5616;42.692;23.312;2022-11-30T15:01:58;27.53;;;10.20;;
11123;SDS011;5616;42.692;23.312;2022-11-30T15:04:27;27.43;;;12.20;;
11123;SDS011;5616;42.692;23.312;2022-11-30T15:06:55;4.00;;;3.00;;
11123;SDS011;5616;42.692;23.312;2022-11-30T15:09:23;6.13;;;2.97;;
11123;SDS011;5616;42.692;23.312;2022-11-30T15:11:53;3.33;;;2.80;;
11123;SDS011;5616;42.692;23.312;2022-11-30T15:14:21;5.50;;;3.13;;
11123;SDS011;5616;42.692;23.312;2022-11-30T15:16:48;5.27;;;3.33;;
11123;SDS011;5616;42.692;23.312;2022-11-30T15:19:21;4.53;;;3.10;;
11123;SDS011;5616;42.692;23.312;2022-11-30T15:21:50;5.22;;;3.35;;